Halifax, Nova Scotia

6:49 PM ADT on August 30, 2016 (GMT -0300)
Halifax International | | Change Station

Elev 476 ft 44.88 °N, 63.51 °W | Updated 49 minutes ago

Mostly Cloudy
Mostly Cloudy
72 °F
Feels Like 72 °F
N
9
Wind Variable Wind from NNW

Today
High -- | Low -- °F
--% Chance of Precip.
Yesterday
High -- | Low -- °F
Precip. -- in
Pressure 30.01 in
Visibility 15.0 miles
Clouds Few 6000 ft
Few 9000 ft
Mostly Cloudy 20000 ft
Dew Point 48 °F
Humidity 43%
Rainfall 0.00 in
Snow Depth Not available.
6:34 AM 7:53 PM
Waning Crescent, 2% visible
METAR CYHZ 302100Z 33008KT 15SM FEW060 FEW090 BKN200 22/09 A3000 RMK CF1AC1CC4 SLP163 DENSITY ALT 1200FT
Pressure 30.01 in
Visibility 15.0 miles
Clouds Few 6000 ft
Few 9000 ft
Mostly Cloudy 20000 ft
Dew Point 48 °F
Humidity 43%
Rainfall 0.00 in
Snow Depth Not available.
6:34 AM 7:53 PM
Waning Crescent, 2% visible
METAR CYHZ 302100Z 33008KT 15SM FEW060 FEW090 BKN200 22/09 A3000 RMK CF1AC1CC4 SLP163 DENSITY ALT 1200FT

10-Day Weather Forecast

Almanac

Astronomy

Aug. 30, 2016 Rise Set
Actual Time
Civil Twilight
Nautical Twilight
Astronomical Twilight
Moon
Length of Visible Light
Length of Day
Tomorrow will be .
, % of the Moon is Illuminated

Today's Extremes

Country Highs Country Lows

Community

WunderPhotos

Upload Photos

1,935,901 photos uploaded!

WunderBlog® & News

Nearby

Air Quality

  Air Quality AQ Index Pollutant
Not available.

Snow Depth

Station Depth Elevation

Earthquake Activity

City Distance Mag. Time & Date
Minimum magnitude displayed is 2.5.

Coastal Water Temperatures

Place Temperature

Stations

Nearby Weather Stations

Station Location Temp. Windchill Dew Point Humidity Wind Precip. Elev Updated Type
                   

Watches & Warnings

There are currently no watches in effect.